sensor_id;sensor_type;location;lat;lon;timestamp;P1;durP1;ratioP1;P2;durP2;ratioP2
22677;SDS011;26259;50.214;18.620;2022-11-15T00:01:34;121.77;;;40.47;;
22677;SDS011;26259;50.214;18.620;2022-11-15T00:04:01;356.13;;;44.77;;
22677;SDS011;26259;50.214;18.620;2022-11-15T00:06:28;153.50;;;37.67;;
22677;SDS011;26259;50.214;18.620;2022-11-15T00:08:53;140.07;;;36.80;;
22677;SDS011;26259;50.214;18.620;2022-11-15T00:11:19;174.80;;;38.57;;
22677;SDS011;26259;50.214;18.620;2022-11-15T00:13:45;168.17;;;35.50;;
22677;SDS011;26259;50.214;18.620;2022-11-15T00:16:10;106.53;;;33.30;;
22677;SDS011;26259;50.214;18.620;2022-11-15T00:18:37;354.50;;;42.00;;
22677;SDS011;26259;50.214;18.620;2022-11-15T00:21:04;119.60;;;35.20;;
22677;SDS011;26259;50.214;18.620;2022-11-15T00:23:31;125.67;;;36.23;;
22677;SDS011;26259;50.214;18.620;2022-11-15T00:25:57;109.73;;;34.63;;
22677;SDS011;26259;50.214;18.620;2022-11-15T00:28:23;110.43;;;34.50;;
22677;SDS011;26259;50.214;18.620;2022-11-15T00:30:50;121.00;;;34.27;;
22677;SDS011;26259;50.214;18.620;2022-11-15T00:33:15;126.87;;;33.93;;
22677;SDS011;26259;50.214;18.620;2022-11-15T00:35:41;164.37;;;37.47;;
22677;SDS011;26259;50.214;18.620;2022-11-15T00:38:06;108.80;;;36.40;;
22677;SDS011;26259;50.214;18.620;2022-11-15T00:40:32;167.27;;;39.63;;
22677;SDS011;26259;50.214;18.620;2022-11-15T00:42:58;121.67;;;37.03;;
22677;SDS011;26259;50.214;18.620;2022-11-15T00:45:23;93.93;;;38.57;;
22677;SDS011;26259;50.214;18.620;2022-11-15T00:47:50;109.80;;;37.27;;
22677;SDS011;26259;50.214;18.620;2022-11-15T00:50:16;117.37;;;35.10;;
22677;SDS011;26259;50.214;18.620;2022-11-15T00:52:42;105.53;;;37.10;;
22677;SDS011;26259;50.214;18.620;2022-11-15T00:55:17;98.13;;;36.97;;
22677;SDS011;26259;50.214;18.620;2022-11-15T00:57:43;106.67;;;37.00;;
22677;SDS011;26259;50.214;18.620;2022-11-15T01:00:10;87.37;;;37.23;;
22677;SDS011;26259;50.214;18.620;2022-11-15T01:02:36;177.83;;;41.03;;
22677;SDS011;26259;50.214;18.620;2022-11-15T01:05:02;108.17;;;39.20;;
22677;SDS011;26259;50.214;18.620;2022-11-15T01:07:27;204.87;;;42.70;;
22677;SDS011;26259;50.214;18.620;2022-11-15T01:09:53;128.17;;;41.00;;
22677;SDS011;26259;50.214;18.620;2022-11-15T01:12:19;170.47;;;41.83;;
22677;SDS011;26259;50.214;18.620;2022-11-15T01:14:44;149.43;;;42.00;;
22677;SDS011;26259;50.214;18.620;2022-11-15T01:17:10;241.67;;;45.87;;
22677;SDS011;26259;50.214;18.620;2022-11-15T01:19:35;174.90;;;44.30;;
22677;SDS011;26259;50.214;18.620;2022-11-15T01:22:01;121.80;;;40.07;;
22677;SDS011;26259;50.214;18.620;2022-11-15T01:24:26;135.33;;;43.87;;
22677;SDS011;26259;50.214;18.620;2022-11-15T01:26:52;125.17;;;45.10;;
22677;SDS011;26259;50.214;18.620;2022-11-15T01:29:17;91.90;;;40.97;;
22677;SDS011;26259;50.214;18.620;2022-11-15T01:31:43;108.57;;;43.47;;
22677;SDS011;26259;50.214;18.620;2022-11-15T01:34:09;105.13;;;40.87;;
22677;SDS011;26259;50.214;18.620;2022-11-15T01:36:34;94.97;;;41.27;;
22677;SDS011;26259;50.214;18.620;2022-11-15T01:39:00;101.97;;;39.37;;
22677;SDS011;26259;50.214;18.620;2022-11-15T01:41:30;132.37;;;41.23;;
22677;SDS011;26259;50.214;18.620;2022-11-15T01:44:28;79.97;;;37.37;;
22677;SDS011;26259;50.214;18.620;2022-11-15T01:46:58;92.87;;;38.00;;
22677;SDS011;26259;50.214;18.620;2022-11-15T01:49:28;86.73;;;37.40;;
22677;SDS011;26259;50.214;18.620;2022-11-15T01:51:57;75.30;;;35.37;;
22677;SDS011;26259;50.214;18.620;2022-11-15T01:54:24;93.10;;;35.67;;
22677;SDS011;26259;50.214;18.620;2022-11-15T01:56:53;85.53;;;33.97;;
22677;SDS011;26259;50.214;18.620;2022-11-15T01:59:24;80.80;;;34.57;;
22677;SDS011;26259;50.214;18.620;2022-11-15T02:01:51;72.03;;;33.93;;
22677;SDS011;26259;50.214;18.620;2022-11-15T02:04:19;80.60;;;36.70;;
22677;SDS011;26259;50.214;18.620;2022-11-15T02:06:51;90.97;;;33.57;;
22677;SDS011;26259;50.214;18.620;2022-11-15T02:09:17;91.10;;;35.23;;
22677;SDS011;26259;50.214;18.620;2022-11-15T02:11:44;70.87;;;31.33;;
22677;SDS011;26259;50.214;18.620;2022-11-15T02:14:11;66.53;;;32.63;;
22677;SDS011;26259;50.214;18.620;2022-11-15T02:24:50;61.03;;;30.47;;
22677;SDS011;26259;50.214;18.620;2022-11-15T02:33:59;87.07;;;32.43;;
22677;SDS011;26259;50.214;18.620;2022-11-15T02:39:50;60.10;;;33.43;;
22677;SDS011;26259;50.214;18.620;2022-11-15T02:42:30;67.50;;;35.77;;
22677;SDS011;26259;50.214;18.620;2022-11-15T02:45:23;82.27;;;41.77;;
22677;SDS011;26259;50.214;18.620;2022-11-15T02:47:54;74.53;;;36.47;;
22677;SDS011;26259;50.214;18.620;2022-11-15T02:50:24;76.47;;;33.67;;
22677;SDS011;26259;50.214;18.620;2022-11-15T02:52:52;82.53;;;34.13;;
22677;SDS011;26259;50.214;18.620;2022-11-15T02:55:25;77.23;;;34.40;;
22677;SDS011;26259;50.214;18.620;2022-11-15T02:57:52;67.27;;;31.50;;
22677;SDS011;26259;50.214;18.620;2022-11-15T03:00:24;87.17;;;33.53;;
22677;SDS011;26259;50.214;18.620;2022-11-15T03:11:15;60.73;;;26.50;;
22677;SDS011;26259;50.214;18.620;2022-11-15T03:18:43;76.73;;;28.10;;
22677;SDS011;26259;50.214;18.620;2022-11-15T03:21:31;63.60;;;24.53;;
22677;SDS011;26259;50.214;18.620;2022-11-15T03:24:00;59.33;;;29.33;;
22677;SDS011;26259;50.214;18.620;2022-11-15T03:26:28;86.83;;;26.17;;
22677;SDS011;26259;50.214;18.620;2022-11-15T03:28:56;90.23;;;25.77;;
22677;SDS011;26259;50.214;18.620;2022-11-15T03:31:30;41.53;;;24.70;;
22677;SDS011;26259;50.214;18.620;2022-11-15T03:34:12;44.67;;;25.83;;
22677;SDS011;26259;50.214;18.620;2022-11-15T03:36:59;52.03;;;25.77;;
22677;SDS011;26259;50.214;18.620;2022-11-15T03:39:26;52.70;;;25.03;;
22677;SDS011;26259;50.214;18.620;2022-11-15T03:44:54;50.37;;;29.23;;
22677;SDS011;26259;50.214;18.620;2022-11-15T03:47:36;91.13;;;25.90;;
22677;SDS011;26259;50.214;18.620;2022-11-15T03:50:08;51.40;;;26.17;;
22677;SDS011;26259;50.214;18.620;2022-11-15T03:52:40;65.67;;;31.63;;
22677;SDS011;26259;50.214;18.620;2022-11-15T03:55:08;53.83;;;31.23;;
22677;SDS011;26259;50.214;18.620;2022-11-15T03:57:37;68.87;;;29.40;;
22677;SDS011;26259;50.214;18.620;2022-11-15T04:00:03;51.37;;;27.70;;
22677;SDS011;26259;50.214;18.620;2022-11-15T04:02:30;56.67;;;30.03;;
22677;SDS011;26259;50.214;18.620;2022-11-15T04:04:55;58.07;;;26.70;;
22677;SDS011;26259;50.214;18.620;2022-11-15T04:07:21;62.03;;;28.00;;
22677;SDS011;26259;50.214;18.620;2022-11-15T04:09:47;50.83;;;26.30;;
22677;SDS011;26259;50.214;18.620;2022-11-15T04:12:37;64.07;;;25.60;;
22677;SDS011;26259;50.214;18.620;2022-11-15T04:15:08;54.70;;;27.97;;
22677;SDS011;26259;50.214;18.620;2022-11-15T04:17:46;65.83;;;30.23;;
22677;SDS011;26259;50.214;18.620;2022-11-15T04:20:14;73.27;;;32.03;;
22677;SDS011;26259;50.214;18.620;2022-11-15T04:23:09;62.93;;;30.10;;
22677;SDS011;26259;50.214;18.620;2022-11-15T04:25:55;71.83;;;30.73;;
22677;SDS011;26259;50.214;18.620;2022-11-15T04:28:22;67.17;;;30.90;;
22677;SDS011;26259;50.214;18.620;2022-11-15T04:30:48;97.83;;;31.30;;
22677;SDS011;26259;50.214;18.620;2022-11-15T04:33:14;66.33;;;29.40;;
22677;SDS011;26259;50.214;18.620;2022-11-15T04:35:39;52.13;;;28.77;;
22677;SDS011;26259;50.214;18.620;2022-11-15T04:38:07;85.23;;;31.13;;
22677;SDS011;26259;50.214;18.620;2022-11-15T04:40:34;72.67;;;34.27;;
22677;SDS011;26259;50.214;18.620;2022-11-15T04:43:01;86.93;;;48.23;;
22677;SDS011;26259;50.214;18.620;2022-11-15T04:45:27;133.43;;;63.40;;
22677;SDS011;26259;50.214;18.620;2022-11-15T04:47:52;92.73;;;45.77;;
22677;SDS011;26259;50.214;18.620;2022-11-15T04:50:18;71.97;;;39.47;;
22677;SDS011;26259;50.214;18.620;2022-11-15T04:52:49;64.13;;;35.40;;
22677;SDS011;26259;50.214;18.620;2022-11-15T04:55:16;81.53;;;34.10;;
22677;SDS011;26259;50.214;18.620;2022-11-15T04:57:42;62.80;;;31.27;;
22677;SDS011;26259;50.214;18.620;2022-11-15T05:00:08;63.57;;;31.20;;
22677;SDS011;26259;50.214;18.620;2022-11-15T05:02:37;54.83;;;29.27;;
22677;SDS011;26259;50.214;18.620;2022-11-15T05:05:21;71.13;;;30.07;;
22677;SDS011;26259;50.214;18.620;2022-11-15T05:07:46;119.97;;;31.47;;
22677;SDS011;26259;50.214;18.620;2022-11-15T05:10:12;78.83;;;32.47;;
22677;SDS011;26259;50.214;18.620;2022-11-15T05:12:38;54.77;;;29.00;;
22677;SDS011;26259;50.214;18.620;2022-11-15T05:15:03;59.23;;;29.37;;
22677;SDS011;26259;50.214;18.620;2022-11-15T05:17:29;65.83;;;28.80;;
22677;SDS011;26259;50.214;18.620;2022-11-15T05:19:55;56.33;;;28.63;;
22677;SDS011;26259;50.214;18.620;2022-11-15T05:22:21;62.83;;;29.63;;
22677;SDS011;26259;50.214;18.620;2022-11-15T05:24:47;57.73;;;29.00;;
22677;SDS011;26259;50.214;18.620;2022-11-15T05:27:13;55.00;;;31.07;;
22677;SDS011;26259;50.214;18.620;2022-11-15T05:29:38;55.23;;;29.67;;
22677;SDS011;26259;50.214;18.620;2022-11-15T05:32:05;60.17;;;30.63;;
22677;SDS011;26259;50.214;18.620;2022-11-15T05:34:31;65.57;;;31.27;;
22677;SDS011;26259;50.214;18.620;2022-11-15T05:36:57;76.53;;;34.43;;
22677;SDS011;26259;50.214;18.620;2022-11-15T05:39:24;54.97;;;32.60;;
22677;SDS011;26259;50.214;18.620;2022-11-15T05:41:55;121.43;;;46.90;;
22677;SDS011;26259;50.214;18.620;2022-11-15T05:44:27;79.47;;;36.40;;
22677;SDS011;26259;50.214;18.620;2022-11-15T05:46:53;67.27;;;34.00;;
22677;SDS011;26259;50.214;18.620;2022-11-15T05:49:21;67.67;;;33.30;;
22677;SDS011;26259;50.214;18.620;2022-11-15T05:51:52;58.33;;;33.00;;
22677;SDS011;26259;50.214;18.620;2022-11-15T05:54:18;56.77;;;32.83;;
22677;SDS011;26259;50.214;18.620;2022-11-15T05:56:46;55.27;;;32.83;;
22677;SDS011;26259;50.214;18.620;2022-11-15T05:59:11;66.17;;;32.90;;
22677;SDS011;26259;50.214;18.620;2022-11-15T06:01:37;48.77;;;30.73;;
22677;SDS011;26259;50.214;18.620;2022-11-15T06:04:04;50.70;;;30.00;;
22677;SDS011;26259;50.214;18.620;2022-11-15T06:06:29;53.57;;;30.37;;
22677;SDS011;26259;50.214;18.620;2022-11-15T06:08:55;54.20;;;32.33;;
22677;SDS011;26259;50.214;18.620;2022-11-15T06:11:21;59.93;;;33.43;;
22677;SDS011;26259;50.214;18.620;2022-11-15T06:13:46;52.10;;;31.57;;
22677;SDS011;26259;50.214;18.620;2022-11-15T06:16:12;51.83;;;31.83;;
22677;SDS011;26259;50.214;18.620;2022-11-15T06:18:38;53.63;;;31.53;;
22677;SDS011;26259;50.214;18.620;2022-11-15T06:21:04;49.50;;;30.40;;
22677;SDS011;26259;50.214;18.620;2022-11-15T06:23:34;51.73;;;32.03;;
22677;SDS011;26259;50.214;18.620;2022-11-15T06:26:00;53.87;;;32.40;;
22677;SDS011;26259;50.214;18.620;2022-11-15T06:28:30;52.00;;;32.43;;
22677;SDS011;26259;50.214;18.620;2022-11-15T06:31:06;53.77;;;32.57;;
22677;SDS011;26259;50.214;18.620;2022-11-15T06:33:34;49.37;;;30.63;;
22677;SDS011;26259;50.214;18.620;2022-11-15T06:36:03;53.33;;;31.20;;
22677;SDS011;26259;50.214;18.620;2022-11-15T06:38:30;58.30;;;33.90;;
22677;SDS011;26259;50.214;18.620;2022-11-15T06:41:03;52.43;;;32.93;;
22677;SDS011;26259;50.214;18.620;2022-11-15T06:43:30;58.00;;;33.40;;
22677;SDS011;26259;50.214;18.620;2022-11-15T06:45:57;55.03;;;33.50;;
22677;SDS011;26259;50.214;18.620;2022-11-15T06:48:26;60.43;;;35.07;;
22677;SDS011;26259;50.214;18.620;2022-11-15T06:50:53;56.20;;;33.63;;
22677;SDS011;26259;50.214;18.620;2022-11-15T06:53:20;57.43;;;35.43;;
22677;SDS011;26259;50.214;18.620;2022-11-15T06:55:46;62.23;;;35.77;;
22677;SDS011;26259;50.214;18.620;2022-11-15T06:58:12;57.70;;;35.17;;
22677;SDS011;26259;50.214;18.620;2022-11-15T07:00:37;57.43;;;35.33;;
22677;SDS011;26259;50.214;18.620;2022-11-15T07:03:03;63.67;;;37.33;;
22677;SDS011;26259;50.214;18.620;2022-11-15T07:05:29;60.93;;;37.80;;
22677;SDS011;26259;50.214;18.620;2022-11-15T07:07:55;67.03;;;37.20;;
22677;SDS011;26259;50.214;18.620;2022-11-15T07:10:22;70.63;;;41.77;;
22677;SDS011;26259;50.214;18.620;2022-11-15T07:12:49;65.90;;;39.27;;
22677;SDS011;26259;50.214;18.620;2022-11-15T07:15:16;77.57;;;48.50;;
22677;SDS011;26259;50.214;18.620;2022-11-15T07:17:43;84.07;;;47.67;;
22677;SDS011;26259;50.214;18.620;2022-11-15T07:20:09;76.30;;;44.53;;
22677;SDS011;26259;50.214;18.620;2022-11-15T07:22:35;76.70;;;48.27;;
22677;SDS011;26259;50.214;18.620;2022-11-15T07:25:00;81.10;;;50.13;;
22677;SDS011;26259;50.214;18.620;2022-11-15T07:27:26;79.40;;;49.97;;
22677;SDS011;26259;50.214;18.620;2022-11-15T07:29:51;86.10;;;52.03;;
22677;SDS011;26259;50.214;18.620;2022-11-15T07:32:17;85.40;;;52.10;;
22677;SDS011;26259;50.214;18.620;2022-11-15T07:34:43;86.23;;;48.60;;
22677;SDS011;26259;50.214;18.620;2022-11-15T07:37:10;71.93;;;45.23;;
22677;SDS011;26259;50.214;18.620;2022-11-15T07:39:36;73.63;;;44.50;;
22677;SDS011;26259;50.214;18.620;2022-11-15T07:42:01;66.70;;;42.47;;
22677;SDS011;26259;50.214;18.620;2022-11-15T07:44:45;66.20;;;43.43;;
22677;SDS011;26259;50.214;18.620;2022-11-15T07:47:11;68.73;;;43.60;;
22677;SDS011;26259;50.214;18.620;2022-11-15T07:49:37;69.17;;;42.93;;
22677;SDS011;26259;50.214;18.620;2022-11-15T07:52:03;84.87;;;51.87;;
22677;SDS011;26259;50.214;18.620;2022-11-15T07:54:28;73.10;;;45.97;;
22677;SDS011;26259;50.214;18.620;2022-11-15T07:56:54;68.37;;;46.13;;
22677;SDS011;26259;50.214;18.620;2022-11-15T07:59:20;71.83;;;44.03;;
22677;SDS011;26259;50.214;18.620;2022-11-15T08:01:45;71.30;;;43.97;;
22677;SDS011;26259;50.214;18.620;2022-11-15T08:04:11;70.03;;;45.63;;
22677;SDS011;26259;50.214;18.620;2022-11-15T08:06:37;73.67;;;44.57;;
22677;SDS011;26259;50.214;18.620;2022-11-15T08:09:02;66.50;;;43.13;;
22677;SDS011;26259;50.214;18.620;2022-11-15T08:11:28;70.47;;;43.37;;
22677;SDS011;26259;50.214;18.620;2022-11-15T08:13:53;70.97;;;42.33;;
22677;SDS011;26259;50.214;18.620;2022-11-15T08:16:19;71.97;;;43.83;;
22677;SDS011;26259;50.214;18.620;2022-11-15T08:18:44;107.87;;;66.23;;
22677;SDS011;26259;50.214;18.620;2022-11-15T08:21:17;66.40;;;43.07;;
22677;SDS011;26259;50.214;18.620;2022-11-15T08:23:45;64.27;;;43.27;;
22677;SDS011;26259;50.214;18.620;2022-11-15T08:26:11;63.30;;;40.87;;
22677;SDS011;26259;50.214;18.620;2022-11-15T08:28:36;66.90;;;43.30;;
22677;SDS011;26259;50.214;18.620;2022-11-15T08:31:02;63.57;;;41.87;;
22677;SDS011;26259;50.214;18.620;2022-11-15T08:33:29;64.77;;;42.47;;
22677;SDS011;26259;50.214;18.620;2022-11-15T08:35:57;61.57;;;41.63;;
22677;SDS011;26259;50.214;18.620;2022-11-15T08:38:23;68.03;;;43.77;;
22677;SDS011;26259;50.214;18.620;2022-11-15T08:40:52;70.83;;;43.03;;
22677;SDS011;26259;50.214;18.620;2022-11-15T08:43:23;64.80;;;42.13;;
22677;SDS011;26259;50.214;18.620;2022-11-15T08:45:49;69.90;;;41.70;;
22677;SDS011;26259;50.214;18.620;2022-11-15T08:48:14;60.33;;;39.33;;
22677;SDS011;26259;50.214;18.620;2022-11-15T08:50:40;59.23;;;39.23;;
22677;SDS011;26259;50.214;18.620;2022-11-15T08:53:08;62.10;;;38.70;;
22677;SDS011;26259;50.214;18.620;2022-11-15T08:55:38;61.80;;;38.53;;
22677;SDS011;26259;50.214;18.620;2022-11-15T08:58:04;64.33;;;38.83;;
22677;SDS011;26259;50.214;18.620;2022-11-15T09:00:30;56.37;;;37.13;;
22677;SDS011;26259;50.214;18.620;2022-11-15T09:02:55;55.77;;;38.00;;
22677;SDS011;26259;50.214;18.620;2022-11-15T09:05:21;56.40;;;36.73;;
22677;SDS011;26259;50.214;18.620;2022-11-15T09:07:47;56.23;;;37.87;;
22677;SDS011;26259;50.214;18.620;2022-11-15T09:10:12;55.63;;;36.77;;
22677;SDS011;26259;50.214;18.620;2022-11-15T09:12:38;64.20;;;38.67;;
22677;SDS011;26259;50.214;18.620;2022-11-15T09:15:04;57.87;;;36.53;;
22677;SDS011;26259;50.214;18.620;2022-11-15T09:17:31;57.67;;;35.90;;
22677;SDS011;26259;50.214;18.620;2022-11-15T09:19:56;53.77;;;34.10;;
22677;SDS011;26259;50.214;18.620;2022-11-15T09:22:22;54.20;;;34.47;;
22677;SDS011;26259;50.214;18.620;2022-11-15T09:24:47;50.40;;;33.57;;
22677;SDS011;26259;50.214;18.620;2022-11-15T09:27:13;50.43;;;33.47;;
22677;SDS011;26259;50.214;18.620;2022-11-15T09:29:39;48.40;;;32.93;;
22677;SDS011;26259;50.214;18.620;2022-11-15T09:32:04;47.27;;;31.20;;
22677;SDS011;26259;50.214;18.620;2022-11-15T09:34:30;47.63;;;32.30;;
22677;SDS011;26259;50.214;18.620;2022-11-15T09:36:55;49.80;;;32.10;;
22677;SDS011;26259;50.214;18.620;2022-11-15T09:39:21;45.17;;;28.60;;
22677;SDS011;26259;50.214;18.620;2022-11-15T09:41:49;42.00;;;27.20;;
22677;SDS011;26259;50.214;18.620;2022-11-15T09:51:08;40.97;;;28.03;;
22677;SDS011;26259;50.214;18.620;2022-11-15T09:53:13;43.03;;;27.73;;
22677;SDS011;26259;50.214;18.620;2022-11-15T09:55:59;43.47;;;28.17;;
22677;SDS011;26259;50.214;18.620;2022-11-15T09:58:39;48.03;;;28.43;;
22677;SDS011;26259;50.214;18.620;2022-11-15T10:04:03;48.73;;;29.60;;
22677;SDS011;26259;50.214;18.620;2022-11-15T10:06:28;44.77;;;26.80;;
22677;SDS011;26259;50.214;18.620;2022-11-15T10:09:05;44.50;;;27.30;;
22677;SDS011;26259;50.214;18.620;2022-11-15T10:11:40;49.37;;;29.50;;
22677;SDS011;26259;50.214;18.620;2022-11-15T10:14:14;45.73;;;30.33;;
22677;SDS011;26259;50.214;18.620;2022-11-15T10:27:28;37.17;;;26.00;;
22677;SDS011;26259;50.214;18.620;2022-11-15T10:29:54;31.87;;;23.43;;
22677;SDS011;26259;50.214;18.620;2022-11-15T10:32:20;43.03;;;25.03;;
22677;SDS011;26259;50.214;18.620;2022-11-15T10:34:47;36.13;;;24.03;;
22677;SDS011;26259;50.214;18.620;2022-11-15T10:37:13;34.10;;;22.50;;
22677;SDS011;26259;50.214;18.620;2022-11-15T10:39:39;35.00;;;23.50;;
22677;SDS011;26259;50.214;18.620;2022-11-15T10:42:15;35.60;;;23.33;;
22677;SDS011;26259;50.214;18.620;2022-11-15T10:44:42;31.00;;;20.63;;
22677;SDS011;26259;50.214;18.620;2022-11-15T10:47:28;31.13;;;19.43;;
22677;SDS011;26259;50.214;18.620;2022-11-15T10:50:00;28.60;;;20.97;;
22677;SDS011;26259;50.214;18.620;2022-11-15T10:52:29;28.90;;;20.07;;
22677;SDS011;26259;50.214;18.620;2022-11-15T10:54:58;32.00;;;21.33;;
22677;SDS011;26259;50.214;18.620;2022-11-15T10:57:26;30.97;;;20.77;;
22677;SDS011;26259;50.214;18.620;2022-11-15T10:59:59;25.37;;;19.40;;
22677;SDS011;26259;50.214;18.620;2022-11-15T11:08:31;36.63;;;22.27;;
22677;SDS011;26259;50.214;18.620;2022-11-15T11:10:57;33.87;;;21.80;;
22677;SDS011;26259;50.214;18.620;2022-11-15T11:13:32;27.13;;;20.80;;
22677;SDS011;26259;50.214;18.620;2022-11-15T11:18:40;29.60;;;21.63;;
22677;SDS011;26259;50.214;18.620;2022-11-15T11:21:18;36.07;;;22.30;;
22677;SDS011;26259;50.214;18.620;2022-11-15T11:29:54;39.37;;;23.17;;
22677;SDS011;26259;50.214;18.620;2022-11-15T11:35:11;39.00;;;26.33;;
22677;SDS011;26259;50.214;18.620;2022-11-15T11:37:46;37.43;;;25.20;;
22677;SDS011;26259;50.214;18.620;2022-11-15T11:48:44;36.13;;;23.57;;
22677;SDS011;26259;50.214;18.620;2022-11-15T11:51:24;36.87;;;25.80;;
22677;SDS011;26259;50.214;18.620;2022-11-15T11:53:57;45.23;;;29.97;;
22677;SDS011;26259;50.214;18.620;2022-11-15T11:56:43;38.07;;;25.30;;
22677;SDS011;26259;50.214;18.620;2022-11-15T11:59:25;37.73;;;26.03;;
22677;SDS011;26259;50.214;18.620;2022-11-15T12:02:18;41.07;;;25.93;;
22677;SDS011;26259;50.214;18.620;2022-11-15T12:04:51;37.83;;;25.47;;
22677;SDS011;26259;50.214;18.620;2022-11-15T12:07:27;39.43;;;25.97;;
22677;SDS011;26259;50.214;18.620;2022-11-15T12:12:49;51.60;;;33.20;;
22677;SDS011;26259;50.214;18.620;2022-11-15T12:15:24;41.17;;;26.17;;
22677;SDS011;26259;50.214;18.620;2022-11-15T12:17:54;37.63;;;25.03;;
22677;SDS011;26259;50.214;18.620;2022-11-15T12:20:33;38.43;;;25.83;;
22677;SDS011;26259;50.214;18.620;2022-11-15T12:23:15;34.53;;;24.07;;
22677;SDS011;26259;50.214;18.620;2022-11-15T12:25:58;40.53;;;25.57;;
22677;SDS011;26259;50.214;18.620;2022-11-15T12:31:40;34.77;;;24.17;;
22677;SDS011;26259;50.214;18.620;2022-11-15T12:36:44;36.90;;;25.17;;
22677;SDS011;26259;50.214;18.620;2022-11-15T12:39:11;46.60;;;26.33;;
22677;SDS011;26259;50.214;18.620;2022-11-15T12:41:38;37.80;;;27.47;;
22677;SDS011;26259;50.214;18.620;2022-11-15T12:57:22;45.60;;;27.13;;
22677;SDS011;26259;50.214;18.620;2022-11-15T12:59:58;39.50;;;27.23;;
22677;SDS011;26259;50.214;18.620;2022-11-15T13:02:30;41.70;;;26.20;;
22677;SDS011;26259;50.214;18.620;2022-11-15T13:10:51;39.83;;;26.23;;
22677;SDS011;26259;50.214;18.620;2022-11-15T13:17:55;42.27;;;27.27;;
22677;SDS011;26259;50.214;18.620;2022-11-15T13:20:23;40.43;;;26.80;;
22677;SDS011;26259;50.214;18.620;2022-11-15T13:28:01;42.97;;;26.97;;
22677;SDS011;26259;50.214;18.620;2022-11-15T13:30:32;39.13;;;27.10;;
22677;SDS011;26259;50.214;18.620;2022-11-15T13:32:58;35.83;;;25.33;;
22677;SDS011;26259;50.214;18.620;2022-11-15T13:35:36;36.70;;;25.73;;
22677;SDS011;26259;50.214;18.620;2022-11-15T13:38:04;39.97;;;26.43;;
22677;SDS011;26259;50.214;18.620;2022-11-15T13:40:37;37.97;;;26.57;;
22677;SDS011;26259;50.214;18.620;2022-11-15T13:46:04;41.33;;;27.97;;
22677;SDS011;26259;50.214;18.620;2022-11-15T13:49:08;46.20;;;28.67;;
22677;SDS011;26259;50.214;18.620;2022-11-15T13:56:55;46.80;;;30.10;;
22677;SDS011;26259;50.214;18.620;2022-11-15T13:59:34;49.77;;;31.03;;
22677;SDS011;26259;50.214;18.620;2022-11-15T14:02:03;51.30;;;32.63;;
22677;SDS011;26259;50.214;18.620;2022-11-15T14:04:38;42.27;;;27.47;;
22677;SDS011;26259;50.214;18.620;2022-11-15T14:07:15;37.87;;;27.00;;
22677;SDS011;26259;50.214;18.620;2022-11-15T14:09:43;57.33;;;39.73;;
22677;SDS011;26259;50.214;18.620;2022-11-15T14:14:52;52.80;;;36.10;;
22677;SDS011;26259;50.214;18.620;2022-11-15T14:19:58;42.27;;;28.47;;
22677;SDS011;26259;50.214;18.620;2022-11-15T14:22:25;44.20;;;28.30;;
22677;SDS011;26259;50.214;18.620;2022-11-15T14:27:37;50.57;;;35.07;;
22677;SDS011;26259;50.214;18.620;2022-11-15T14:30:03;80.80;;;57.83;;
22677;SDS011;26259;50.214;18.620;2022-11-15T14:32:39;178.87;;;121.87;;
22677;SDS011;26259;50.214;18.620;2022-11-15T14:35:12;245.87;;;152.27;;
22677;SDS011;26259;50.214;18.620;2022-11-15T14:37:40;244.40;;;152.67;;
22677;SDS011;26259;50.214;18.620;2022-11-15T14:40:06;266.93;;;162.77;;
22677;SDS011;26259;50.214;18.620;2022-11-15T14:42:34;163.97;;;90.17;;
22677;SDS011;26259;50.214;18.620;2022-11-15T14:45:00;87.90;;;54.47;;
22677;SDS011;26259;50.214;18.620;2022-11-15T14:47:25;55.77;;;34.93;;
22677;SDS011;26259;50.214;18.620;2022-11-15T14:49:51;73.20;;;40.03;;
22677;SDS011;26259;50.214;18.620;2022-11-15T14:52:27;50.83;;;30.20;;
22677;SDS011;26259;50.214;18.620;2022-11-15T14:54:55;52.67;;;31.37;;
22677;SDS011;26259;50.214;18.620;2022-11-15T14:57:23;32.33;;;20.00;;
22677;SDS011;26259;50.214;18.620;2022-11-15T14:59:49;40.57;;;25.40;;
22677;SDS011;26259;50.214;18.620;2022-11-15T15:02:16;38.10;;;25.87;;
22677;SDS011;26259;50.214;18.620;2022-11-15T15:04:47;35.70;;;23.77;;
22677;SDS011;26259;50.214;18.620;2022-11-15T15:07:13;39.77;;;24.60;;
22677;SDS011;26259;50.214;18.620;2022-11-15T15:09:39;47.13;;;29.23;;
22677;SDS011;26259;50.214;18.620;2022-11-15T15:12:05;44.87;;;28.50;;
22677;SDS011;26259;50.214;18.620;2022-11-15T15:14:39;54.93;;;33.20;;
22677;SDS011;26259;50.214;18.620;2022-11-15T15:17:05;60.87;;;34.67;;
22677;SDS011;26259;50.214;18.620;2022-11-15T15:19:30;61.47;;;34.63;;
22677;SDS011;26259;50.214;18.620;2022-11-15T15:21:56;52.80;;;33.27;;
22677;SDS011;26259;50.214;18.620;2022-11-15T15:24:21;54.57;;;33.23;;
22677;SDS011;26259;50.214;18.620;2022-11-15T15:26:47;61.03;;;33.83;;
22677;SDS011;26259;50.214;18.620;2022-11-15T15:29:12;55.10;;;34.37;;
22677;SDS011;26259;50.214;18.620;2022-11-15T15:31:38;60.40;;;35.40;;
22677;SDS011;26259;50.214;18.620;2022-11-15T15:34:04;61.47;;;35.53;;
22677;SDS011;26259;50.214;18.620;2022-11-15T15:36:29;63.10;;;35.47;;
22677;SDS011;26259;50.214;18.620;2022-11-15T15:38:55;66.80;;;39.43;;
22677;SDS011;26259;50.214;18.620;2022-11-15T15:41:20;96.40;;;57.40;;
22677;SDS011;26259;50.214;18.620;2022-11-15T15:43:46;124.63;;;61.93;;
22677;SDS011;26259;50.214;18.620;2022-11-15T15:46:16;144.97;;;75.47;;
22677;SDS011;26259;50.214;18.620;2022-11-15T15:48:43;173.03;;;87.70;;
22677;SDS011;26259;50.214;18.620;2022-11-15T15:51:09;185.10;;;87.67;;
22677;SDS011;26259;50.214;18.620;2022-11-15T15:53:35;144.20;;;71.43;;
22677;SDS011;26259;50.214;18.620;2022-11-15T15:56:00;134.53;;;67.67;;
22677;SDS011;26259;50.214;18.620;2022-11-15T15:58:26;118.03;;;61.40;;
22677;SDS011;26259;50.214;18.620;2022-11-15T16:00:52;114.97;;;58.77;;
22677;SDS011;26259;50.214;18.620;2022-11-15T16:03:18;122.93;;;61.20;;
22677;SDS011;26259;50.214;18.620;2022-11-15T16:05:45;126.73;;;65.83;;
22677;SDS011;26259;50.214;18.620;2022-11-15T16:08:21;110.37;;;59.33;;
22677;SDS011;26259;50.214;18.620;2022-11-15T16:10:48;105.70;;;57.10;;
22677;SDS011;26259;50.214;18.620;2022-11-15T16:13:14;102.57;;;53.00;;
22677;SDS011;26259;50.214;18.620;2022-11-15T16:15:40;80.87;;;45.17;;
22677;SDS011;26259;50.214;18.620;2022-11-15T16:18:17;79.60;;;46.10;;
22677;SDS011;26259;50.214;18.620;2022-11-15T16:20:44;95.00;;;52.47;;
22677;SDS011;26259;50.214;18.620;2022-11-15T16:23:14;97.33;;;52.00;;
22677;SDS011;26259;50.214;18.620;2022-11-15T16:25:45;92.00;;;50.70;;
22677;SDS011;26259;50.214;18.620;2022-11-15T16:28:17;74.10;;;42.87;;
22677;SDS011;26259;50.214;18.620;2022-11-15T16:30:44;61.40;;;34.60;;